createdAt,value
2018-11-06T00:00:05.681Z,26.80
2018-11-06T00:03:19.088Z,26.70
2018-11-06T00:06:17.034Z,26.70
2018-11-06T00:09:19.244Z,26.70
2018-11-06T00:12:15.368Z,26.70
2018-11-06T00:15:10.134Z,26.70
2018-11-06T00:18:04.935Z,26.70
2018-11-06T00:20:59.350Z,26.60
2018-11-06T00:23:53.701Z,26.60
2018-11-06T00:26:50.353Z,26.60
2018-11-06T00:29:46.048Z,26.60
2018-11-06T00:32:40.771Z,26.60
2018-11-06T00:35:38.476Z,26.60
2018-11-06T00:38:32.702Z,26.60
2018-11-06T00:41:30.464Z,26.50
2018-11-06T00:44:30.650Z,26.50
2018-11-06T00:47:28.354Z,26.50
2018-11-06T00:50:29.297Z,26.50
2018-11-06T00:53:29.874Z,26.50
2018-11-06T00:56:27.406Z,26.50
2018-11-06T00:59:24.830Z,26.50
2018-11-06T01:02:22.461Z,26.50
2018-11-06T01:05:18.653Z,26.50
2018-11-06T01:08:14.045Z,26.50
2018-11-06T01:11:09.373Z,26.50
2018-11-06T01:14:05.234Z,26.50
2018-11-06T01:17:00.592Z,26.50
2018-11-06T01:19:56.333Z,26.50
2018-11-06T01:22:52.101Z,26.50
2018-11-06T01:25:48.553Z,26.50
2018-11-06T01:28:44.598Z,26.50
2018-11-06T01:31:40.252Z,26.40
2018-11-06T01:34:35.688Z,26.40
2018-11-06T01:37:31.333Z,26.40
2018-11-06T01:40:26.442Z,26.50
2018-11-06T01:43:25.300Z,26.40
2018-11-06T01:46:22.001Z,26.40
2018-11-06T01:49:17.272Z,26.40
2018-11-06T01:52:12.113Z,26.40
2018-11-06T01:55:08.567Z,26.40
2018-11-06T01:58:04.153Z,26.40
2018-11-06T02:01:00.191Z,26.40
2018-11-06T02:03:54.515Z,26.40
2018-11-06T02:06:49.389Z,26.40
2018-11-06T02:09:44.446Z,26.40
2018-11-06T02:12:40.596Z,26.50
2018-11-06T02:15:37.305Z,26.50
2018-11-06T02:18:32.998Z,26.40
2018-11-06T02:21:29.794Z,26.50
2018-11-06T02:24:26.535Z,26.50
2018-11-06T02:27:20.919Z,26.50
2018-11-06T02:30:19.587Z,26.50
2018-11-06T02:33:16.652Z,26.50
2018-11-06T02:36:13.366Z,26.50
2018-11-06T02:39:09.739Z,26.50
2018-11-06T02:42:04.732Z,26.60
2018-11-06T02:45:05.527Z,26.60
2018-11-06T02:48:02.952Z,26.60
2018-11-06T02:51:00.388Z,26.60
2018-11-06T02:53:58.235Z,26.60
2018-11-06T02:56:54.341Z,26.70
2018-11-06T02:59:49.671Z,26.70
2018-11-06T03:02:45.486Z,26.70
2018-11-06T03:05:39.511Z,26.70
2018-11-06T03:08:35.903Z,26.80
2018-11-06T03:11:31.836Z,26.80
2018-11-06T03:14:28.363Z,26.80
2018-11-06T03:17:24.575Z,26.90
2018-11-06T03:20:20.774Z,26.90
2018-11-06T03:23:17.567Z,26.90
2018-11-06T03:26:13.656Z,27.00
2018-11-06T03:29:11.265Z,27.00
2018-11-06T03:32:08.305Z,27.10
2018-11-06T03:35:05.534Z,27.10
2018-11-06T03:38:01.618Z,27.20
2018-11-06T03:40:57.018Z,27.20
2018-11-06T03:43:54.344Z,27.20
2018-11-06T03:46:50.943Z,27.30
2018-11-06T03:49:47.065Z,27.30
2018-11-06T03:52:42.703Z,27.30
2018-11-06T03:55:38.963Z,27.30
2018-11-06T03:58:35.579Z,27.30
2018-11-06T04:01:31.488Z,27.30
2018-11-06T04:04:27.780Z,27.40
2018-11-06T04:07:34.847Z,27.40
2018-11-06T04:10:31.523Z,27.50
2018-11-06T04:13:27.509Z,27.50
2018-11-06T04:16:23.883Z,27.60
2018-11-06T04:19:20.524Z,27.60
2018-11-06T04:22:19.677Z,27.60
2018-11-06T04:25:17.585Z,27.70
2018-11-06T04:28:12.504Z,27.70
2018-11-06T04:31:09.418Z,27.80
2018-11-06T04:34:07.374Z,27.80
2018-11-06T04:37:03.579Z,27.90
2018-11-06T04:40:00.335Z,27.90
2018-11-06T04:43:00.463Z,27.90
2018-11-06T04:46:03.902Z,28.00
2018-11-06T04:49:00.021Z,28.00
2018-11-06T04:51:55.343Z,28.10
2018-11-06T04:54:51.731Z,28.20
2018-11-06T04:57:49.186Z,28.20
2018-11-06T05:00:47.346Z,28.30
2018-11-06T05:03:55.560Z,28.40
2018-11-06T05:06:50.863Z,28.40
2018-11-06T05:09:45.252Z,28.50
2018-11-06T05:12:45.275Z,28.50
2018-11-06T05:15:37.109Z,28.60
2018-11-06T05:18:33.016Z,28.70
2018-11-06T05:21:30.590Z,28.80
2018-11-06T05:24:29.106Z,28.80
2018-11-06T05:27:27.403Z,28.90
2018-11-06T05:30:23.792Z,28.90
2018-11-06T05:33:23.690Z,29.00
2018-11-06T05:36:24.546Z,29.00
2018-11-06T05:39:34.479Z,29.10
2018-11-06T05:42:40.734Z,29.20
2018-11-06T05:45:43.183Z,29.20
2018-11-06T05:48:44.039Z,29.30
2018-11-06T05:55:09.846Z,29.30
2018-11-06T05:58:13.701Z,29.40
2018-11-06T06:01:24.337Z,29.50
2018-11-06T06:04:30.223Z,29.50
2018-11-06T06:07:31.686Z,29.60
2018-11-06T06:10:31.554Z,29.60
2018-11-06T06:13:30.059Z,29.70
2018-11-06T06:16:30.041Z,29.70
2018-11-06T06:19:57.287Z,29.80
2018-11-06T06:23:19.241Z,29.90
2018-11-06T06:29:47.837Z,29.90
2018-11-06T06:32:43.506Z,30.00
2018-11-06T06:35:37.466Z,30.00
2018-11-06T06:38:31.703Z,30.00
2018-11-06T06:41:28.987Z,30.10
2018-11-06T06:44:28.718Z,30.10
2018-11-06T06:47:22.624Z,30.20
2018-11-06T06:50:18.117Z,30.30
2018-11-06T06:53:12.240Z,30.40
2018-11-06T06:56:06.043Z,30.50
2018-11-06T06:59:02.804Z,30.60
2018-11-06T07:01:57.330Z,30.70
2018-11-06T07:04:57.700Z,30.80
2018-11-06T07:07:52.751Z,30.90
2018-11-06T07:10:46.829Z,31.00
2018-11-06T07:13:40.401Z,31.00
2018-11-06T07:16:37.324Z,31.10
2018-11-06T07:19:31.549Z,31.10
2018-11-06T07:22:28.150Z,31.10
2018-11-06T07:25:21.905Z,31.10
2018-11-06T07:28:15.391Z,31.10
2018-11-06T07:31:09.754Z,31.20
2018-11-06T07:34:04.886Z,31.20
2018-11-06T07:37:07.127Z,31.20
2018-11-06T07:43:56.209Z,31.40
2018-11-06T07:46:52.135Z,31.40
2018-11-06T07:49:48.564Z,31.40
2018-11-06T07:52:43.811Z,31.40
2018-11-06T07:55:40.834Z,31.40
2018-11-06T07:58:44.080Z,31.40
2018-11-06T08:01:36.295Z,31.40
2018-11-06T08:04:31.561Z,31.40
2018-11-06T08:07:26.098Z,31.40
2018-11-06T08:10:24.161Z,31.50
2018-11-06T08:13:15.759Z,31.50
2018-11-06T08:17:50.863Z,31.50
2018-11-06T08:20:45.339Z,31.60
2018-11-06T08:23:39.269Z,31.70
2018-11-06T08:26:38.003Z,31.70
2018-11-06T08:29:27.507Z,31.70
2018-11-06T08:32:39.058Z,31.80
2018-11-06T08:35:29.918Z,31.80
2018-11-06T08:38:23.654Z,31.80
2018-11-06T08:41:17.831Z,31.80
2018-11-06T08:44:12.124Z,31.80
2018-11-06T08:47:05.916Z,31.80
2018-11-06T08:52:54.454Z,31.90
2018-11-06T08:55:48.752Z,31.90
2018-11-06T08:58:42.338Z,31.90
2018-11-06T09:01:35.866Z,31.90
2018-11-06T09:04:29.806Z,31.90
2018-11-06T09:07:23.642Z,31.90
2018-11-06T09:10:18.441Z,31.90
2018-11-06T09:13:13.341Z,31.90
2018-11-06T09:16:08.735Z,31.90
2018-11-06T09:19:07.367Z,31.90
2018-11-06T09:22:09.200Z,31.90
2018-11-06T09:25:05.515Z,31.80
2018-11-06T09:28:04.816Z,31.90
2018-11-06T09:31:00.777Z,31.90
2018-11-06T09:33:59.768Z,31.90
2018-11-06T09:36:59.065Z,31.90
2018-11-06T09:39:56.171Z,31.90
2018-11-06T09:42:53.897Z,31.90
2018-11-06T09:45:50.517Z,31.90
2018-11-06T09:48:52.057Z,32.00
2018-11-06T09:51:50.183Z,32.00
2018-11-06T09:54:46.911Z,31.90
2018-11-06T09:57:43.643Z,31.90
2018-11-06T10:00:41.444Z,31.90
2018-11-06T10:03:41.465Z,31.90
2018-11-06T10:06:39.764Z,31.90
2018-11-06T10:09:37.342Z,31.90
2018-11-06T10:12:33.436Z,31.80
2018-11-06T10:15:33.392Z,31.80
2018-11-06T10:18:29.441Z,31.80
2018-11-06T10:21:24.605Z,31.70
2018-11-06T10:24:22.597Z,31.70
2018-11-06T10:27:14.920Z,31.70
2018-11-06T10:30:11.410Z,31.70
2018-11-06T10:33:08.382Z,31.60
2018-11-06T10:36:02.635Z,31.60
2018-11-06T10:38:59.537Z,31.60
2018-11-06T10:42:03.404Z,31.50
2018-11-06T10:45:01.790Z,31.50
2018-11-06T10:47:55.998Z,31.40
2018-11-06T10:50:51.061Z,31.40
2018-11-06T10:53:45.068Z,31.40
2018-11-06T10:56:39.619Z,31.30
2018-11-06T10:59:53.193Z,31.30
2018-11-06T11:03:04.372Z,31.20
2018-11-06T11:05:58.425Z,31.20
2018-11-06T11:08:53.350Z,31.20
2018-11-06T11:11:50.426Z,31.10
2018-11-06T11:14:50.638Z,31.10
2018-11-06T11:17:45.619Z,31.10
2018-11-06T11:20:41.480Z,31.10
2018-11-06T11:23:35.733Z,31.10
2018-11-06T11:26:31.431Z,31.10
2018-11-06T11:29:27.019Z,31.10
2018-11-06T11:32:21.281Z,31.00
2018-11-06T11:35:17.721Z,31.00
2018-11-06T11:38:11.672Z,31.00
2018-11-06T11:41:05.644Z,31.00
2018-11-06T11:43:59.228Z,31.00
2018-11-06T11:46:52.986Z,31.00
2018-11-06T11:49:51.395Z,31.00
2018-11-06T11:52:47.095Z,31.00
2018-11-06T11:55:53.836Z,31.00
2018-11-06T11:58:47.549Z,31.00
2018-11-06T12:01:41.607Z,30.90
2018-11-06T12:04:35.561Z,30.90
2018-11-06T12:07:36.525Z,30.90
2018-11-06T12:10:31.862Z,30.90
2018-11-06T12:13:25.832Z,30.90
2018-11-06T12:16:19.996Z,30.90
2018-11-06T12:19:13.994Z,30.80
2018-11-06T12:22:07.870Z,30.80
2018-11-06T12:25:01.544Z,30.80
2018-11-06T12:27:55.072Z,30.80
2018-11-06T12:30:49.017Z,30.80
2018-11-06T12:33:43.075Z,30.80
2018-11-06T12:36:37.105Z,30.80
2018-11-06T12:39:34.820Z,30.80
2018-11-06T12:42:33.191Z,30.70
2018-11-06T12:45:23.446Z,30.70
2018-11-06T12:48:17.466Z,30.70
2018-11-06T12:51:11.546Z,30.70
2018-11-06T12:54:05.835Z,30.70
2018-11-06T12:57:04.219Z,30.70
2018-11-06T12:59:55.314Z,30.70
2018-11-06T13:02:48.688Z,30.70
2018-11-06T13:05:42.456Z,30.70
2018-11-06T13:08:36.450Z,30.70
2018-11-06T13:11:30.321Z,30.70
2018-11-06T13:14:24.193Z,30.70
2018-11-06T13:17:18.785Z,30.70
2018-11-06T13:20:20.757Z,30.70
2018-11-06T13:23:12.991Z,30.60
2018-11-06T13:26:07.250Z,30.60
2018-11-06T13:29:01.873Z,30.60
2018-11-06T13:31:56.261Z,30.60
2018-11-06T13:34:51.060Z,30.60
2018-11-06T13:37:47.588Z,30.60
2018-11-06T13:40:42.277Z,30.60
2018-11-06T13:43:36.148Z,30.50
2018-11-06T13:46:29.872Z,30.50
2018-11-06T13:49:24.231Z,30.50
2018-11-06T13:52:18.175Z,30.40
2018-11-06T13:55:14.503Z,30.40
2018-11-06T13:58:08.929Z,30.50
2018-11-06T14:01:05.993Z,30.40
2018-11-06T14:04:07.320Z,30.40
2018-11-06T14:07:01.406Z,30.40
2018-11-06T14:09:56.296Z,30.40
2018-11-06T14:12:50.018Z,30.30
2018-11-06T14:15:44.329Z,30.30
2018-11-06T14:18:39.086Z,30.40
2018-11-06T14:21:32.962Z,30.30
2018-11-06T14:24:27.164Z,30.30
2018-11-06T14:27:21.019Z,30.30
2018-11-06T14:30:20.663Z,30.30
2018-11-06T14:33:18.447Z,30.30
2018-11-06T14:36:16.575Z,30.30
2018-11-06T14:39:13.546Z,30.20
2018-11-06T14:42:27.718Z,30.30
2018-11-06T14:45:16.486Z,30.20
2018-11-06T14:48:11.120Z,30.20
2018-11-06T14:51:05.406Z,30.20
2018-11-06T14:53:59.772Z,30.20
2018-11-06T14:56:55.243Z,30.20
2018-11-06T14:59:49.234Z,30.20
2018-11-06T15:02:43.468Z,30.30
2018-11-06T15:05:37.536Z,30.30
2018-11-06T15:08:32.354Z,30.20
2018-11-06T15:11:26.372Z,30.20
2018-11-06T15:14:20.751Z,30.20
2018-11-06T15:17:15.736Z,30.20
2018-11-06T15:20:12.251Z,30.20
2018-11-06T15:23:06.784Z,30.20
2018-11-06T15:26:01.337Z,30.20
2018-11-06T15:28:55.158Z,30.20
2018-11-06T15:31:49.276Z,30.30
2018-11-06T15:34:43.149Z,30.30
2018-11-06T15:37:38.142Z,30.30
2018-11-06T15:40:35.327Z,30.30
2018-11-06T15:43:29.208Z,30.30
2018-11-06T15:46:23.374Z,30.30
2018-11-06T15:49:17.786Z,30.30
2018-11-06T15:52:11.963Z,30.30
2018-11-06T15:55:06.661Z,30.30
2018-11-06T15:58:00.941Z,30.30
2018-11-06T16:00:55.999Z,30.30
2018-11-06T16:03:50.031Z,30.30
2018-11-06T16:06:46.256Z,30.20
2018-11-06T16:09:46.620Z,30.20
2018-11-06T16:12:38.023Z,30.20
2018-11-06T16:15:32.162Z,30.20
2018-11-06T16:18:26.252Z,30.10
2018-11-06T16:21:19.745Z,30.10
2018-11-06T16:24:14.070Z,30.00
2018-11-06T16:27:08.093Z,30.00
2018-11-06T16:30:01.910Z,29.90
2018-11-06T16:32:55.553Z,29.90
2018-11-06T16:35:49.624Z,29.90
2018-11-06T16:38:44.425Z,29.80
2018-11-06T16:41:39.139Z,29.80
2018-11-06T16:44:33.095Z,29.80
2018-11-06T16:47:27.279Z,29.70
2018-11-06T16:50:22.488Z,29.70
2018-11-06T16:53:16.652Z,29.70
2018-11-06T16:56:10.652Z,29.70
2018-11-06T16:59:04.732Z,29.60
2018-11-06T17:01:59.827Z,29.60
2018-11-06T17:04:54.019Z,29.60
2018-11-06T17:07:48.226Z,29.60
2018-11-06T17:11:01.022Z,29.50
2018-11-06T17:13:54.696Z,29.50
2018-11-06T17:16:49.290Z,29.50
2018-11-06T17:19:45.413Z,29.50
2018-11-06T17:22:39.497Z,29.50
2018-11-06T17:25:33.424Z,29.50
2018-11-06T17:28:31.241Z,29.50
2018-11-06T17:31:21.727Z,29.40
2018-11-06T17:34:16.543Z,29.40
2018-11-06T17:37:10.936Z,29.40
2018-11-06T17:40:05.316Z,29.40
2018-11-06T17:42:59.595Z,29.40
2018-11-06T17:45:53.890Z,29.30
2018-11-06T17:48:47.574Z,29.30
2018-11-06T17:51:42.059Z,29.30
2018-11-06T17:54:35.442Z,29.30
2018-11-06T17:57:29.906Z,29.30
2018-11-06T18:00:25.728Z,29.30
2018-11-06T18:03:22.472Z,29.40
2018-11-06T18:06:16.552Z,29.40
2018-11-06T18:09:15.137Z,29.40
2018-11-06T18:12:09.325Z,29.40
2018-11-06T18:15:04.231Z,29.50
2018-11-06T18:17:58.481Z,29.50
2018-11-06T18:20:54.940Z,29.50
2018-11-06T18:23:49.032Z,29.40
2018-11-06T18:26:43.871Z,29.50
2018-11-06T18:29:37.916Z,29.40
2018-11-06T18:32:32.458Z,29.40
2018-11-06T18:35:26.233Z,29.40
2018-11-06T18:38:20.691Z,29.40
2018-11-06T18:41:14.538Z,29.30
2018-11-06T18:44:09.809Z,29.30
2018-11-06T18:47:03.621Z,29.30
2018-11-06T18:49:57.914Z,29.20
2018-11-06T18:52:52.946Z,29.20
2018-11-06T18:55:47.127Z,29.20
2018-11-06T18:58:40.973Z,29.20
2018-11-06T19:01:35.055Z,29.20
2018-11-06T19:04:35.719Z,29.20
2018-11-06T19:07:26.286Z,29.20
2018-11-06T19:10:20.579Z,29.10
2018-11-06T19:13:14.344Z,29.10
2018-11-06T19:16:11.195Z,29.10
2018-11-06T19:19:05.170Z,29.00
2018-11-06T19:21:58.780Z,29.00
2018-11-06T19:24:52.515Z,28.90
2018-11-06T19:27:46.409Z,28.90
2018-11-06T19:30:43.336Z,28.90
2018-11-06T19:33:37.416Z,28.80
2018-11-06T19:36:34.495Z,28.80
2018-11-06T19:39:27.915Z,28.70
2018-11-06T19:42:21.823Z,28.70
2018-11-06T19:45:15.830Z,28.70
2018-11-06T19:48:09.879Z,28.70
2018-11-06T19:51:04.062Z,28.60
2018-11-06T19:54:01.269Z,28.60
2018-11-06T19:56:57.643Z,28.60
2018-11-06T19:59:52.034Z,28.50
2018-11-06T20:02:46.981Z,28.50
2018-11-06T20:05:40.968Z,28.50
2018-11-06T20:08:37.971Z,28.40
2018-11-06T20:11:34.308Z,28.40
2018-11-06T20:14:28.279Z,28.40
2018-11-06T20:17:22.206Z,28.40
2018-11-06T20:20:20.137Z,28.30
2018-11-06T20:23:14.101Z,28.30
2018-11-06T20:26:08.084Z,28.30
2018-11-06T20:29:02.064Z,28.30
2018-11-06T20:31:56.145Z,28.30
2018-11-06T20:34:54.488Z,28.20
2018-11-06T20:37:44.836Z,28.20
2018-11-06T20:40:38.999Z,28.20
2018-11-06T20:43:33.027Z,28.20
2018-11-06T20:46:27.281Z,28.20
2018-11-06T20:49:23.548Z,28.20
2018-11-06T20:52:17.640Z,28.10
2018-11-06T20:55:13.302Z,28.10
2018-11-06T20:58:09.554Z,28.10
2018-11-06T21:01:03.390Z,28.10
2018-11-06T21:03:57.588Z,28.10
2018-11-06T21:06:52.027Z,28.10
2018-11-06T21:09:45.851Z,28.10
2018-11-06T21:12:44.030Z,28.00
2018-11-06T21:15:40.759Z,28.10
2018-11-06T21:18:35.263Z,28.10
2018-11-06T21:21:29.227Z,28.10
2018-11-06T21:24:23.427Z,28.10
2018-11-06T21:27:17.170Z,28.10
2018-11-06T21:30:16.108Z,28.10
2018-11-06T21:33:10.277Z,28.10
2018-11-06T21:36:26.553Z,28.00
2018-11-06T21:39:07.663Z,28.00
2018-11-06T21:42:07.118Z,28.00
2018-11-06T21:45:01.244Z,28.00
2018-11-06T21:47:55.519Z,28.00
2018-11-06T21:50:49.511Z,28.00
2018-11-06T21:53:43.692Z,28.00
2018-11-06T21:56:37.709Z,28.00
2018-11-06T21:59:31.652Z,27.90
2018-11-06T22:02:25.619Z,27.90
2018-11-06T22:05:20.710Z,27.90
2018-11-06T22:08:14.250Z,27.90
2018-11-06T22:11:08.388Z,27.90
2018-11-06T22:14:02.561Z,27.90
2018-11-06T22:16:56.840Z,27.90
2018-11-06T22:19:50.846Z,27.80
2018-11-06T22:22:45.704Z,27.80
2018-11-06T22:25:39.601Z,27.80
2018-11-06T22:28:33.795Z,27.70
2018-11-06T22:31:28.290Z,27.70
2018-11-06T22:34:22.366Z,27.70
2018-11-06T22:37:16.330Z,27.60
2018-11-06T22:40:10.864Z,27.60
2018-11-06T22:43:04.841Z,27.60
2018-11-06T22:45:59.142Z,27.60
2018-11-06T22:48:59.578Z,27.50
2018-11-06T22:51:49.820Z,27.50
2018-11-06T22:54:43.287Z,27.50
2018-11-06T22:57:40.032Z,27.40
2018-11-06T23:00:50.498Z,27.40
2018-11-06T23:03:44.479Z,27.40
2018-11-06T23:06:38.740Z,27.30
2018-11-06T23:09:32.946Z,27.30
2018-11-06T23:12:27.231Z,27.30
2018-11-06T23:15:21.142Z,27.30
2018-11-06T23:18:15.188Z,27.30
2018-11-06T23:21:08.961Z,27.20
2018-11-06T23:24:02.943Z,27.20
2018-11-06T23:26:57.440Z,27.20
2018-11-06T23:29:51.410Z,27.20
2018-11-06T23:32:45.393Z,27.20
2018-11-06T23:35:42.387Z,27.20
2018-11-06T23:38:38.904Z,27.20
2018-11-06T23:41:34.991Z,27.20
2018-11-06T23:44:28.472Z,27.10
2018-11-06T23:47:22.244Z,27.10
2018-11-06T23:50:16.123Z,27.10
2018-11-06T23:53:09.691Z,27.10
2018-11-06T23:56:03.141Z,27.10
2018-11-06T23:58:56.932Z,27.00
